Sierra Vista, AZ

8:25 AM MST on September 02, 2015 (GMT -0700)
Rancho Costa Lota | | Change Station
CLOSE
Current Station
Personal Weather Station
Location: Sierra Vista, AZ
Elevation: 4342 ft
Nearby Weather Stations

Elev 4342 ft 31.50 °N, 110.18 °W | Updated 54 seconds ago

Mostly Cloudy
Mostly Cloudy
76.4 °F
Feels Like 78 °F
N
0.0
Wind Variable Wind from East
Gusts 1.0 mph

Today
High -- | Low -- °F
--% Chance of Precip.
Yesterday
High -- | Low -- °F
Precip. -- in
5:57 AM 6:43 PM
Waning Gibbous, 79% visible
Pressure 29.98 in
Visibility 7.0 miles
Clouds Few 15000 ft
Heat Index 78 °F
Dew Point 60 °F
Humidity 58%
Rainfall 0.00 in
Snow Depth Not available.
UV 2 out of 12
Pollen 5.20 out of 12
Air Quality Not available.
Flu Activity Not available.
METAR KFHU 021458Z AUTO 36004KT 7SM FEW150 24/14 A3020 RMK AO2 SLP152 T02380139 50007
Pressure 29.98 in
Visibility 7.0 miles
Clouds Few 15000 ft
Heat Index 78 °F
Dew Point 60 °F
Humidity 58%
Rainfall 0.00 in
Snow Depth Not available.
UV 2 out of 12
Pollen 5.20 out of 12
Air Quality Not available.
Flu Activity Not available.
METAR KFHU 021458Z AUTO 36004KT 7SM FEW150 24/14 A3020 RMK AO2 SLP152 T02380139 50007

10-Day Weather Forecast

×

Almanac

Astronomy

Sep. 02, 2015 Rise Set
Actual Time
Civil Twilight
Nautical Twilight
Astronomical Twilight
Moon
Length of Visible Light
Length of Day
Tomorrow will be .
, % of the Moon is Illuminated

Today's Extremes

State Highs State Lows

Community

WunderPhotos

Upload Photos

1,851,770 photos uploaded!

WunderBlogs® & News

Nearby

Air Quality

  Air Quality AQ Index Pollutant
Not available.

Snow Depth

Station Depth Elevation

Earthquake Activity

City Distance Mag. Time & Date
Minimum magnitude displayed is 2.5.

Coastal Water Temperatures

Place Temperature

Stations

Nearby Weather Stations

Station Location Temp. Windchill Dew Point Humidity Wind Precip. Elev Updated Type